Jupiter, Florida
Current Conditions -  °F | °C
As of 6:53 PM on Saturday 25 Oct 2014 (Local Time) from KPBI Reporting Station
Few Clouds Few Clouds  
Wind Chill: 76°   Ceiling: Unl
Heat Index: 76°   Visibility: 10mi
Dew Point: 65°   Wind: 10mph
Humidity: 69%   Direction: 350°N
Pressure: 29.9"   Gusts: NA
Location:  26.93°N, 80.1°W
Report Text: KPBI 252253Z 35009KT 10SM FEW041 24/18 A2990 RMK AO2 SLP124 T02440183
Loading
Personal Weather Stations






























Interactive Weather Map
Tropical Storm Tracking
New forecast layout! Learn more

10-Day Weather Forecast

Advertisements
Track Severe Weather on mobile